Time;durP1;ratioP1;P1;durP2;ratioP2;P2;SDS_P1;SDS_P2;PMS_P1;PMS_P2;Temp;Humidity;BMP_temperature;BMP_pressure;BME280_temperature;BME280_humidity;BME280_pressure;Samples;Min_cycle;Max_cycle;Signal;HPM_P1;HPM_P2
2021/10/30 00:02:02;;;;;;;51.22;27.23;;;7.70;99.90;;;;;;5011269;28;20160;-69
2021/10/30 00:04:28;;;;;;;48.90;27.88;;;7.80;99.90;;;;;;5018462;28;20849;-69
2021/10/30 00:06:54;;;;;;;50.75;27.85;;;7.70;99.90;;;;;;5021218;28;20040;-69
2021/10/30 00:09:20;;;;;;;52.17;26.90;;;7.70;99.90;;;;;;5017933;28;20041;-69
2021/10/30 00:11:45;;;;;;;48.22;27.58;;;7.70;99.90;;;;;;5012439;28;20734;-69
2021/10/30 00:14:11;;;;;;;51.55;27.65;;;7.60;99.90;;;;;;5007458;28;20044;-69
2021/10/30 00:16:36;;;;;;;49.55;28.10;;;7.60;99.90;;;;;;5003323;28;20042;-69
2021/10/30 00:19:02;;;;;;;48.00;26.33;;;7.50;99.90;;;;;;5009989;28;20052;-70
2021/10/30 00:21:27;;;;;;;46.40;26.60;;;7.50;99.90;;;;;;5015346;28;20666;-69
2021/10/30 00:23:53;;;;;;;45.13;26.10;;;7.50;99.90;;;;;;5019790;28;20030;-69
2021/10/30 00:26:19;;;;;;;46.33;27.20;;;7.40;99.90;;;;;;5005608;28;20402;-69
2021/10/30 00:28:45;;;;;;;46.30;26.85;;;7.40;99.90;;;;;;5010365;28;20042;-70
2021/10/30 00:31:10;;;;;;;52.17;29.20;;;7.40;99.90;;;;;;5014431;28;20048;-70
2021/10/30 00:33:36;;;;;;;50.50;28.25;;;7.40;99.90;;;;;;5020501;28;20037;-70
2021/10/30 00:36:01;;;;;;;51.13;27.25;;;7.50;99.90;;;;;;5009114;28;20042;-70
2021/10/30 00:38:27;;;;;;;53.88;27.17;;;7.60;99.90;;;;;;5010010;28;20086;-70
2021/10/30 00:40:52;;;;;;;48.53;27.60;;;7.60;99.90;;;;;;5017137;28;20095;-70
2021/10/30 00:43:18;;;;;;;49.45;27.67;;;7.60;99.90;;;;;;5021003;28;20107;-70
2021/10/30 00:45:43;;;;;;;49.75;27.73;;;7.60;99.90;;;;;;5017937;28;20104;-70
2021/10/30 00:48:09;;;;;;;46.38;26.42;;;7.70;99.90;;;;;;5010192;28;20037;-70
2021/10/30 00:50:34;;;;;;;51.33;27.90;;;7.60;99.90;;;;;;5006669;28;20547;-70
2021/10/30 00:53:00;;;;;;;51.70;28.95;;;7.70;99.90;;;;;;5003246;28;20041;-70
2021/10/30 00:55:25;;;;;;;48.20;27.73;;;7.60;99.90;;;;;;5008380;28;20030;-70
2021/10/30 00:57:51;;;;;;;50.92;27.40;;;7.70;99.90;;;;;;5013649;28;20060;-70
2021/10/30 01:00:16;;;;;;;50.60;28.65;;;7.60;99.90;;;;;;5018281;28;20623;-70
2021/10/30 01:02:42;;;;;;;49.47;28.95;;;7.60;99.90;;;;;;5018942;28;20101;-70
2021/10/30 01:05:07;;;;;;;55.58;28.50;;;7.70;99.90;;;;;;5014544;28;20037;-70
2021/10/30 01:07:33;;;;;;;51.72;28.52;;;7.80;99.90;;;;;;5008028;28;20498;-69
2021/10/30 01:09:58;;;;;;;48.25;27.23;;;7.80;99.90;;;;;;5005002;28;20541;-69
2021/10/30 01:12:23;;;;;;;54.67;28.15;;;7.80;99.90;;;;;;5003790;28;20040;-69
2021/10/30 01:14:50;;;;;;;52.30;27.48;;;7.80;99.90;;;;;;5008433;28;20079;-69
2021/10/30 01:17:15;;;;;;;51.03;27.50;;;7.90;99.90;;;;;;5011558;28;20199;-69
2021/10/30 01:19:41;;;;;;;48.70;27.50;;;7.80;99.90;;;;;;5002542;28;20036;-69
2021/10/30 01:22:06;;;;;;;51.17;28.98;;;7.80;99.90;;;;;;5005628;28;20953;-70
2021/10/30 01:24:32;;;;;;;48.55;27.35;;;7.80;99.90;;;;;;5012101;28;20545;-69
2021/10/30 01:26:58;;;;;;;51.28;29.05;;;7.80;99.90;;;;;;5016777;28;20843;-69
2021/10/30 01:29:23;;;;;;;49.47;27.85;;;7.80;99.90;;;;;;5019615;28;20108;-69
2021/10/30 01:31:49;;;;;;;52.20;27.73;;;7.80;99.90;;;;;;5007675;28;20132;-70
2021/10/30 01:34:14;;;;;;;52.10;27.65;;;7.90;99.90;;;;;;5012591;28;20025;-69
2021/10/30 01:36:40;;;;;;;47.47;27.33;;;7.90;99.90;;;;;;5004318;28;20843;-69
2021/10/30 01:39:05;;;;;;;50.47;27.63;;;7.90;99.90;;;;;;5002370;28;20112;-69
2021/10/30 01:41:32;;;;;;;49.80;28.27;;;7.90;99.90;;;;;;5002415;28;20022;-70
2021/10/30 01:43:57;;;;;;;49.88;28.25;;;8.00;99.90;;;;;;4990912;28;20618;-69
2021/10/30 01:46:23;;;;;;;48.05;27.85;;;8.00;99.90;;;;;;5008075;28;20837;-69
2021/10/30 01:48:48;;;;;;;50.28;28.90;;;8.00;99.90;;;;;;5011753;28;20088;-70
2021/10/30 01:51:14;;;;;;;56.10;29.48;;;8.00;99.90;;;;;;5007529;28;20489;-70
2021/10/30 01:53:40;;;;;;;49.60;27.50;;;8.10;99.90;;;;;;5013386;28;20045;-70
2021/10/30 01:56:06;;;;;;;48.50;28.23;;;8.10;99.90;;;;;;5017610;28;20155;-70
2021/10/30 01:58:31;;;;;;;50.70;27.80;;;8.00;99.90;;;;;;5015178;28;20503;-70
2021/10/30 02:00:56;;;;;;;58.65;27.75;;;8.10;99.90;;;;;;5012462;28;20029;-70
2021/10/30 02:03:23;;;;;;;51.33;27.42;;;8.00;99.90;;;;;;5005329;28;20627;-69
2021/10/30 02:05:48;;;;;;;45.15;26.00;;;8.00;99.90;;;;;;5000944;28;20037;-70
2021/10/30 02:08:14;;;;;;;47.80;27.35;;;8.00;99.90;;;;;;5008118;28;20048;-69
2021/10/30 02:10:39;;;;;;;45.50;27.00;;;8.00;99.90;;;;;;5013785;28;20699;-69
2021/10/30 02:13:05;;;;;;;47.55;26.90;;;8.00;99.90;;;;;;5014534;28;20501;-70
2021/10/30 02:15:32;;;;;;;47.70;27.48;;;7.90;99.90;;;;;;5014206;28;20456;-69
2021/10/30 02:17:57;;;;;;;53.90;29.33;;;7.90;99.90;;;;;;5011857;28;20029;-69
2021/10/30 02:20:23;;;;;;;49.45;27.30;;;7.90;99.90;;;;;;5009316;28;20083;-69
2021/10/30 02:22:54;;;;;;;50.92;29.08;;;7.90;99.90;;;;;;5007649;28;20054;-69
2021/10/30 02:25:21;;;;;;;51.03;27.48;;;7.80;99.90;;;;;;4982129;28;20132;-70
2021/10/30 02:27:47;;;;;;;47.58;26.77;;;7.80;99.90;;;;;;5006054;28;20045;-70
2021/10/30 02:30:12;;;;;;;47.90;26.83;;;7.80;99.90;;;;;;5012540;28;20152;-69
2021/10/30 02:32:37;;;;;;;51.65;28.20;;;7.80;99.90;;;;;;5015858;28;20875;-69
2021/10/30 02:35:03;;;;;;;52.45;27.80;;;7.90;99.90;;;;;;5010950;28;20098;-70
2021/10/30 02:37:28;;;;;;;56.47;29.17;;;7.90;99.90;;;;;;5010335;28;20034;-70
2021/10/30 02:39:54;;;;;;;47.70;28.58;;;8.00;99.90;;;;;;5015969;28;20546;-70
2021/10/30 02:42:19;;;;;;;48.22;26.77;;;8.10;99.90;;;;;;5020667;28;20029;-70
2021/10/30 02:44:45;;;;;;;48.60;27.15;;;8.10;99.90;;;;;;5015934;28;20691;-70
2021/10/30 02:47:10;;;;;;;53.50;27.85;;;8.00;99.90;;;;;;5011784;28;20098;-70
2021/10/30 02:49:37;;;;;;;48.42;27.70;;;8.00;99.90;;;;;;5016105;28;20036;-69
2021/10/30 02:52:03;;;;;;;45.80;26.13;;;8.00;99.90;;;;;;5018336;28;20029;-70
2021/10/30 02:54:29;;;;;;;48.15;26.58;;;8.00;99.90;;;;;;5013773;28;20785;-70
2021/10/30 02:56:54;;;;;;;49.90;27.45;;;7.90;99.90;;;;;;5008556;28;20037;-70
2021/10/30 02:59:20;;;;;;;51.45;28.00;;;7.80;99.90;;;;;;5002380;28;20028;-70
2021/10/30 03:01:46;;;;;;;54.95;27.60;;;7.80;99.90;;;;;;5005115;28;20026;-70
2021/10/30 03:04:12;;;;;;;45.78;26.95;;;7.70;99.90;;;;;;5008229;28;20033;-70
2021/10/30 03:06:37;;;;;;;47.10;27.77;;;7.70;99.90;;;;;;5012414;28;20091;-70
2021/10/30 03:09:03;;;;;;;48.15;28.17;;;7.60;99.90;;;;;;5019819;28;20037;-70
2021/10/30 03:11:28;;;;;;;48.25;26.95;;;7.60;99.90;;;;;;5019603;28;20041;-70
2021/10/30 03:13:54;;;;;;;50.72;27.35;;;7.70;99.90;;;;;;5014312;28;20033;-70
2021/10/30 03:16:19;;;;;;;49.65;28.23;;;7.60;99.90;;;;;;5013610;28;20041;-70
2021/10/30 03:18:45;;;;;;;48.58;28.13;;;7.70;99.90;;;;;;5021635;28;20037;-70
2021/10/30 03:21:10;;;;;;;54.33;29.55;;;7.60;99.90;;;;;;5015175;28;20410;-71
2021/10/30 03:23:36;;;;;;;50.22;27.75;;;7.60;99.90;;;;;;4995527;28;20040;-70
2021/10/30 03:26:01;;;;;;;51.45;27.92;;;7.70;99.90;;;;;;5007127;28;20041;-70
2021/10/30 03:28:27;;;;;;;53.53;27.38;;;7.70;99.90;;;;;;5017593;28;20053;-70
2021/10/30 03:30:52;;;;;;;49.92;28.13;;;7.70;99.90;;;;;;5016029;28;20072;-70
2021/10/30 03:33:17;;;;;;;49.40;28.25;;;7.60;99.90;;;;;;5009653;28;20448;-70
2021/10/30 03:35:43;;;;;;;48.05;28.40;;;7.60;99.90;;;;;;5004982;28;20092;-70
2021/10/30 03:38:09;;;;;;;49.83;27.98;;;7.60;99.90;;;;;;5001537;28;20048;-70
2021/10/30 03:40:34;;;;;;;46.28;26.85;;;7.60;99.90;;;;;;5006611;28;20120;-70
2021/10/30 03:42:59;;;;;;;50.25;28.65;;;7.50;99.90;;;;;;5011552;28;20571;-70
2021/10/30 03:45:25;;;;;;;50.83;27.90;;;7.60;99.90;;;;;;5011071;28;20509;-70
2021/10/30 03:47:50;;;;;;;54.97;28.63;;;7.60;99.90;;;;;;5016413;28;20034;-70
2021/10/30 03:50:16;;;;;;;48.25;27.65;;;7.70;99.90;;;;;;5011072;28;20041;-70
2021/10/30 03:52:42;;;;;;;52.65;27.50;;;8.00;99.90;;;;;;5015002;28;20029;-70
2021/10/30 03:55:07;;;;;;;53.42;28.17;;;7.70;99.90;;;;;;5016282;28;20479;-70
2021/10/30 03:57:33;;;;;;;55.63;28.00;;;7.70;99.90;;;;;;5005454;28;20034;-70
2021/10/30 03:59:59;;;;;;;52.78;28.83;;;7.70;99.90;;;;;;5011356;28;20030;-69
2021/10/30 04:02:24;;;;;;;46.45;27.23;;;7.60;99.90;;;;;;5015655;28;20057;-70
2021/10/30 04:04:50;;;;;;;51.47;26.80;;;7.60;99.90;;;;;;5021708;28;20797;-70
2021/10/30 04:07:15;;;;;;;56.05;29.00;;;7.50;99.90;;;;;;5017519;28;20073;-70
2021/10/30 04:09:41;;;;;;;51.90;27.92;;;7.50;99.90;;;;;;5014385;28;20111;-69
2021/10/30 04:12:06;;;;;;;53.17;29.08;;;7.40;99.90;;;;;;5016953;28;20029;-69
2021/10/30 04:14:32;;;;;;;56.22;29.83;;;7.40;99.90;;;;;;5021671;28;20120;-69
2021/10/30 04:16:57;;;;;;;49.83;28.98;;;7.40;99.90;;;;;;5011111;28;20030;-69
2021/10/30 04:19:23;;;;;;;49.83;29.20;;;7.40;99.90;;;;;;5008333;28;20596;-70
2021/10/30 04:21:48;;;;;;;50.20;29.05;;;7.40;99.90;;;;;;5000338;28;20087;-70
2021/10/30 04:24:14;;;;;;;53.40;28.83;;;7.30;99.90;;;;;;5003593;28;20022;-69
2021/10/30 04:26:39;;;;;;;50.00;29.20;;;7.30;99.90;;;;;;5007415;28;20094;-70
2021/10/30 04:29:05;;;;;;;54.38;28.30;;;7.40;99.90;;;;;;5014714;28;20029;-69
2021/10/30 04:31:31;;;;;;;47.17;27.30;;;7.40;99.90;;;;;;5020600;28;20076;-69
2021/10/30 04:34:02;;;;;;;50.75;28.25;;;7.40;99.90;;;;;;5018321;28;20121;-69
2021/10/30 04:36:29;;;;;;;47.60;27.67;;;7.50;99.90;;;;;;5008557;28;20118;-69
2021/10/30 04:38:54;;;;;;;50.30;27.63;;;7.40;99.90;;;;;;5015247;28;20022;-69
2021/10/30 04:41:20;;;;;;;46.00;27.80;;;7.30;99.90;;;;;;5017961;28;20494;-69
2021/10/30 04:43:45;;;;;;;53.75;28.70;;;7.40;99.90;;;;;;5014997;28;20040;-70
2021/10/30 04:46:11;;;;;;;48.28;27.45;;;7.40;99.90;;;;;;5010817;28;20053;-69
2021/10/30 04:48:36;;;;;;;44.22;26.35;;;7.40;99.90;;;;;;5016333;28;20073;-69
2021/10/30 04:51:02;;;;;;;47.72;26.90;;;7.30;99.90;;;;;;5019909;28;20064;-70
2021/10/30 04:53:27;;;;;;;52.92;26.70;;;7.30;99.90;;;;;;5012834;28;20045;-70
2021/10/30 04:55:53;;;;;;;43.88;25.25;;;7.30;99.90;;;;;;5006529;28;20073;-70
2021/10/30 04:58:18;;;;;;;48.00;26.80;;;7.20;99.90;;;;;;5004123;28;20121;-70
2021/10/30 05:00:44;;;;;;;54.38;27.85;;;7.20;99.90;;;;;;5008680;28;20111;-70
2021/10/30 05:03:09;;;;;;;49.95;26.88;;;7.20;99.90;;;;;;5011939;28;20534;-70
2021/10/30 05:05:35;;;;;;;54.85;28.52;;;7.20;99.90;;;;;;5008365;28;20560;-70
2021/10/30 05:08:00;;;;;;;51.72;25.77;;;7.10;99.90;;;;;;5010519;28;20041;-70
2021/10/30 05:10:26;;;;;;;50.08;27.13;;;7.20;99.90;;;;;;5004800;28;20049;-69
2021/10/30 05:12:51;;;;;;;58.22;27.52;;;7.20;99.90;;;;;;5007275;28;20080;-70
2021/10/30 05:15:17;;;;;;;48.47;26.02;;;7.20;99.90;;;;;;5005972;28;20076;-70
2021/10/30 05:17:42;;;;;;;48.08;26.75;;;7.20;99.90;;;;;;5000634;28;20095;-70
2021/10/30 05:20:08;;;;;;;43.90;24.67;;;7.10;99.90;;;;;;5007820;28;20375;-70
2021/10/30 05:22:34;;;;;;;51.22;27.70;;;7.10;99.90;;;;;;5009285;28;20963;-70
2021/10/30 05:24:59;;;;;;;46.13;25.85;;;7.00;99.90;;;;;;5012376;28;20140;-70
2021/10/30 05:27:25;;;;;;;47.13;26.48;;;6.90;99.90;;;;;;5014227;28;20037;-70
2021/10/30 05:29:50;;;;;;;45.50;25.10;;;6.90;99.90;;;;;;5013692;28;20073;-70
2021/10/30 05:32:16;;;;;;;50.88;25.55;;;6.80;99.90;;;;;;5008946;28;20137;-69
2021/10/30 05:35:00;;;;;;;45.53;26.25;;;6.80;99.90;;;;;;5018701;28;20048;-70
2021/10/30 05:37:44;;;;;;;46.10;26.75;;;6.80;99.90;;;;;;5005737;28;20043;-70
2021/10/30 05:40:10;;;;;;;47.45;26.48;;;6.70;99.90;;;;;;5006459;28;20414;-70
2021/10/30 05:42:36;;;;;;;49.03;26.02;;;6.60;99.90;;;;;;5008479;28;20060;-70
2021/10/30 05:45:01;;;;;;;45.35;25.85;;;6.60;99.90;;;;;;5002359;28;20656;-70
2021/10/30 05:47:27;;;;;;;49.35;27.92;;;6.50;99.90;;;;;;5006892;28;20513;-69
2021/10/30 05:49:53;;;;;;;48.30;26.23;;;6.50;99.90;;;;;;5006277;28;20065;-70
2021/10/30 05:52:18;;;;;;;46.30;26.65;;;6.40;99.90;;;;;;5007757;28;20029;-70
2021/10/30 05:54:44;;;;;;;47.67;25.48;;;6.40;99.90;;;;;;5010644;28;20061;-70
2021/10/30 05:57:11;;;;;;;49.85;27.48;;;6.40;99.90;;;;;;5011228;28;20033;-70
2021/10/30 05:59:36;;;;;;;47.40;25.98;;;6.40;99.90;;;;;;5010839;28;20038;-69
2021/10/30 06:02:02;;;;;;;47.55;27.30;;;6.30;99.90;;;;;;5011905;28;20040;-69
2021/10/30 06:04:27;;;;;;;46.95;27.27;;;6.30;99.90;;;;;;5010169;28;20133;-70
2021/10/30 06:06:53;;;;;;;50.88;27.23;;;6.20;99.90;;;;;;5007168;28;20032;-70
2021/10/30 06:09:19;;;;;;;49.80;28.20;;;6.20;99.90;;;;;;5004471;28;20576;-70
2021/10/30 06:11:45;;;;;;;51.15;27.67;;;6.20;99.90;;;;;;5009902;28;20104;-69
2021/10/30 06:14:11;;;;;;;58.42;26.73;;;6.10;99.90;;;;;;5007668;28;20505;-70
2021/10/30 06:16:37;;;;;;;50.80;27.58;;;6.10;99.90;;;;;;5011740;28;20037;-69
2021/10/30 06:19:02;;;;;;;57.72;29.08;;;6.10;99.90;;;;;;5012319;28;20040;-69
2021/10/30 06:21:28;;;;;;;56.20;30.67;;;6.20;99.90;;;;;;5010536;28;20041;-69
2021/10/30 06:23:54;;;;;;;73.72;36.97;;;6.10;99.90;;;;;;5008272;28;20029;-69
2021/10/30 06:26:20;;;;;;;73.40;39.03;;;6.10;99.90;;;;;;5007940;28;20545;-66
2021/10/30 06:28:46;;;;;;;74.38;39.75;;;6.10;99.90;;;;;;5005634;28;20037;-66
2021/10/30 06:31:11;;;;;;;85.00;41.65;;;6.00;99.90;;;;;;5005108;28;20851;-65
2021/10/30 06:33:36;;;;;;;89.63;45.10;;;6.00;99.90;;;;;;5010717;28;20036;-66
2021/10/30 06:36:02;;;;;;;59.83;33.75;;;6.00;99.90;;;;;;5010303;28;20038;-67
2021/10/30 06:38:27;;;;;;;70.80;37.38;;;6.00;99.90;;;;;;5012195;28;20104;-67
2021/10/30 06:40:56;;;;;;;67.05;34.80;;;6.00;99.90;;;;;;5002535;28;20162;-66
2021/10/30 06:43:21;;;;;;;67.63;35.10;;;6.10;99.90;;;;;;5008519;28;20021;-65
2021/10/30 06:45:47;;;;;;;66.80;35.38;;;6.10;99.90;;;;;;5007694;28;20140;-65
2021/10/30 06:48:13;;;;;;;73.15;37.05;;;6.10;99.90;;;;;;5001257;28;20022;-65
2021/10/30 06:50:38;;;;;;;77.95;35.92;;;6.30;99.90;;;;;;5004107;28;20108;-65
2021/10/30 06:53:04;;;;;;;87.07;39.90;;;6.30;99.90;;;;;;5005632;28;20913;-65
2021/10/30 06:55:30;;;;;;;69.45;35.65;;;6.40;99.90;;;;;;5010019;28;20592;-65
2021/10/30 06:57:55;;;;;;;65.93;31.65;;;6.60;99.90;;;;;;4999622;28;20053;-66
2021/10/30 07:00:21;;;;;;;50.80;26.95;;;6.60;99.90;;;;;;5002231;28;20475;-66
2021/10/30 07:02:48;;;;;;;43.95;23.55;;;6.70;99.90;;;;;;5005957;28;20034;-66
2021/10/30 07:05:14;;;;;;;47.53;24.98;;;6.90;99.90;;;;;;5015634;28;20060;-66
2021/10/30 07:07:39;;;;;;;42.63;24.98;;;7.00;99.90;;;;;;5017525;28;20072;-66
2021/10/30 07:10:05;;;;;;;50.78;26.17;;;7.10;99.90;;;;;;5012431;28;20556;-66
2021/10/30 07:12:31;;;;;;;45.40;25.30;;;7.20;99.90;;;;;;5008192;28;20060;-67
2021/10/30 07:14:56;;;;;;;36.90;20.63;;;7.40;99.90;;;;;;5010153;28;20592;-66
2021/10/30 07:17:22;;;;;;;36.15;21.30;;;7.60;99.90;;;;;;5005277;28;20246;-66
2021/10/30 07:19:48;;;;;;;37.53;20.00;;;7.80;99.90;;;;;;5007810;28;20033;-66
2021/10/30 07:22:13;;;;;;;40.92;21.17;;;8.00;99.90;;;;;;5010260;28;20407;-66
2021/10/30 07:24:39;;;;;;;34.70;20.42;;;8.20;99.90;;;;;;5013114;28;20029;-68
2021/10/30 07:27:04;;;;;;;35.08;20.00;;;8.50;99.90;;;;;;5011411;28;20040;-67
2021/10/30 07:29:30;;;;;;;34.78;19.30;;;8.60;99.90;;;;;;5013559;28;20136;-67
2021/10/30 07:31:55;;;;;;;35.15;20.48;;;8.90;99.90;;;;;;5008412;28;20034;-67
2021/10/30 07:34:21;;;;;;;34.10;19.15;;;9.10;99.90;;;;;;5019505;28;20033;-66
2021/10/30 07:36:46;;;;;;;37.03;19.98;;;9.40;99.90;;;;;;5012359;28;20038;-67
2021/10/30 07:39:12;;;;;;;32.17;19.38;;;9.60;99.90;;;;;;5013004;28;20037;-68
2021/10/30 07:41:37;;;;;;;32.90;19.42;;;9.70;99.90;;;;;;5018822;28;20500;-68
2021/10/30 07:44:03;;;;;;;31.73;17.88;;;9.70;99.90;;;;;;5010908;28;20038;-66
2021/10/30 07:46:29;;;;;;;35.42;18.92;;;9.80;99.90;;;;;;5008305;28;20033;-68
2021/10/30 07:48:54;;;;;;;36.03;18.45;;;9.90;99.90;;;;;;5013485;28;20510;-68
2021/10/30 07:51:20;;;;;;;40.00;18.98;;;10.00;99.90;;;;;;5008942;28;20119;-67
2021/10/30 07:53:45;;;;;;;40.30;22.27;;;10.20;99.90;;;;;;5008202;28;20164;-67
2021/10/30 07:56:10;;;;;;;31.67;19.30;;;10.40;99.90;;;;;;5016346;28;20749;-67
2021/10/30 07:58:36;;;;;;;29.58;17.92;;;10.50;99.90;;;;;;5013344;28;20051;-67
2021/10/30 08:01:02;;;;;;;33.20;18.73;;;10.40;99.90;;;;;;5007005;28;20032;-69
2021/10/30 08:03:27;;;;;;;29.55;17.65;;;10.40;99.90;;;;;;5018363;28;20040;-67
2021/10/30 08:05:53;;;;;;;30.80;17.85;;;10.50;99.90;;;;;;5015765;28;20117;-67
2021/10/30 08:08:18;;;;;;;43.75;23.85;;;10.80;99.90;;;;;;5010273;28;20037;-67
2021/10/30 08:10:44;;;;;;;30.67;18.40;;;10.90;99.90;;;;;;5014927;28;20026;-67
2021/10/30 08:13:09;;;;;;;31.63;19.13;;;11.10;99.90;;;;;;5010391;28;20771;-67
2021/10/30 08:15:35;;;;;;;32.88;19.25;;;11.20;99.90;;;;;;5010957;28;20084;-67
2021/10/30 08:18:00;;;;;;;37.65;20.13;;;11.30;99.90;;;;;;5011449;28;20033;-67
2021/10/30 08:20:26;;;;;;;31.42;17.38;;;11.40;99.90;;;;;;5008818;28;20039;-68
2021/10/30 08:22:51;;;;;;;28.10;17.67;;;11.60;99.90;;;;;;5012109;28;20481;-67
2021/10/30 08:25:17;;;;;;;32.08;18.15;;;11.70;99.90;;;;;;5010794;28;20038;-67
2021/10/30 08:27:42;;;;;;;29.88;17.75;;;11.70;99.90;;;;;;5004422;28;20021;-67
2021/10/30 08:30:08;;;;;;;28.02;16.98;;;11.70;99.90;;;;;;5013578;28;20064;-67
2021/10/30 08:32:33;;;;;;;34.38;17.50;;;11.90;99.90;;;;;;5009582;28;20034;-67
2021/10/30 08:34:59;;;;;;;30.23;17.42;;;11.90;99.90;;;;;;5010240;28;20045;-67
2021/10/30 08:37:24;;;;;;;31.42;16.60;;;12.00;99.90;;;;;;5005866;28;20034;-68
2021/10/30 08:39:50;;;;;;;29.80;18.23;;;12.00;99.90;;;;;;5018970;28;20109;-67
2021/10/30 08:42:15;;;;;;;29.90;18.25;;;12.10;99.90;;;;;;5012106;28;20489;-67
2021/10/30 08:44:41;;;;;;;31.23;17.27;;;12.30;99.90;;;;;;5009936;28;20109;-67
2021/10/30 08:47:06;;;;;;;28.75;16.92;;;12.30;99.90;;;;;;5006747;28;20489;-68
2021/10/30 08:49:32;;;;;;;25.85;15.77;;;12.40;99.90;;;;;;5011095;28;20061;-67
2021/10/30 08:51:57;;;;;;;30.35;16.55;;;12.60;99.90;;;;;;5014450;28;20482;-67
2021/10/30 08:54:23;;;;;;;31.95;17.17;;;12.70;99.90;;;;;;5010635;28;20656;-67
2021/10/30 08:56:48;;;;;;;27.25;16.20;;;12.90;99.90;;;;;;5012311;28;20030;-67
2021/10/30 08:59:14;;;;;;;27.30;16.65;;;12.90;99.90;;;;;;5013551;28;20030;-68
2021/10/30 09:01:39;;;;;;;36.38;20.52;;;12.70;99.90;;;;;;5012026;28;20076;-68
2021/10/30 09:04:05;;;;;;;29.40;18.13;;;12.80;99.90;;;;;;5007564;28;20049;-67
2021/10/30 09:06:30;;;;;;;28.23;16.90;;;13.00;99.90;;;;;;5003467;28;20044;-67
2021/10/30 09:08:56;;;;;;;26.05;16.08;;;13.00;99.90;;;;;;5014808;28;20030;-68
2021/10/30 09:11:21;;;;;;;27.70;17.33;;;13.20;99.90;;;;;;5012539;28;20680;-67
2021/10/30 09:13:46;;;;;;;31.58;17.90;;;13.10;99.90;;;;;;5011048;28;20099;-69
2021/10/30 09:16:14;;;;;;;30.67;16.85;;;13.10;99.90;;;;;;5018689;28;20029;-67
2021/10/30 09:18:39;;;;;;;42.72;22.98;;;13.00;99.90;;;;;;5006945;28;20116;-67
2021/10/30 09:21:12;;;;;;;30.95;16.65;;;13.00;99.90;;;;;;5009358;28;20117;-67
2021/10/30 09:23:37;;;;;;;33.10;17.20;;;13.00;99.90;;;;;;5017336;28;20033;-67
2021/10/30 09:26:03;;;;;;;27.45;16.45;;;12.90;99.90;;;;;;5005086;28;20363;-67
2021/10/30 09:28:29;;;;;;;25.42;15.80;;;13.10;99.90;;;;;;5010287;28;20026;-68
2021/10/30 09:30:54;;;;;;;36.03;21.30;;;13.40;99.90;;;;;;5013060;28;20897;-67
2021/10/30 09:33:20;;;;;;;31.73;19.65;;;13.80;99.90;;;;;;5010854;28;20034;-67
2021/10/30 09:35:45;;;;;;;32.97;19.83;;;14.20;99.90;;;;;;5011444;28;20099;-68
2021/10/30 09:38:11;;;;;;;27.90;16.17;;;14.50;99.90;;;;;;5009124;28;20065;-68
2021/10/30 09:40:36;;;;;;;43.08;20.33;;;14.60;99.00;;;;;;5012333;28;20080;-68
2021/10/30 09:43:01;;;;;;;40.15;21.17;;;14.40;99.00;;;;;;5004161;28;20736;-68
2021/10/30 09:45:27;;;;;;;35.35;17.83;;;14.40;99.60;;;;;;5008585;28;20045;-68
2021/10/30 09:47:56;;;;;;;27.08;15.93;;;14.10;99.20;;;;;;5010096;28;20030;-68
2021/10/30 09:50:22;;;;;;;27.55;15.77;;;14.30;99.60;;;;;;5014844;28;20112;-68
2021/10/30 09:52:48;;;;;;;26.15;15.70;;;14.30;99.10;;;;;;5014101;28;20029;-69
2021/10/30 09:55:13;;;;;;;53.92;36.35;;;14.30;99.40;;;;;;5007201;28;20044;-68
2021/10/30 09:57:40;;;;;;;31.58;20.70;;;14.30;99.90;;;;;;5010313;28;20029;-68
2021/10/30 10:00:07;;;;;;;37.42;20.00;;;14.60;99.90;;;;;;5016571;28;20087;-69
2021/10/30 10:02:33;;;;;;;34.70;20.42;;;14.50;99.40;;;;;;5014567;28;20044;-69
2021/10/30 10:05:02;;;;;;;34.00;21.02;;;14.50;99.60;;;;;;5009711;28;20037;-69
2021/10/30 10:07:28;;;;;;;28.50;16.52;;;14.50;99.70;;;;;;5008616;28;20029;-69
2021/10/30 10:09:53;;;;;;;31.00;16.77;;;14.50;99.00;;;;;;5008887;28;20044;-69
2021/10/30 10:12:19;;;;;;;26.85;15.90;;;14.50;99.40;;;;;;5018267;28;20064;-68
2021/10/30 10:14:44;;;;;;;30.48;16.63;;;14.40;99.20;;;;;;5011302;28;20041;-68
2021/10/30 10:17:10;;;;;;;26.55;16.08;;;14.40;99.60;;;;;;5007037;28;20106;-69
2021/10/30 10:19:36;;;;;;;30.17;16.35;;;14.40;99.60;;;;;;5004782;28;20213;-69
2021/10/30 10:22:01;;;;;;;25.00;14.73;;;14.30;99.10;;;;;;5006751;28;20466;-69
2021/10/30 10:24:27;;;;;;;24.23;15.32;;;14.40;99.60;;;;;;5012889;28;20347;-69
2021/10/30 10:26:53;;;;;;;24.90;15.68;;;14.80;98.90;;;;;;5004639;28;20030;-69
2021/10/30 10:29:18;;;;;;;31.02;16.42;;;14.70;99.00;;;;;;5002416;28;20514;-69
2021/10/30 10:31:48;;;;;;;31.63;17.60;;;14.60;99.40;;;;;;5008156;28;20026;-68
2021/10/30 10:34:13;;;;;;;32.38;17.02;;;14.70;98.80;;;;;;5010019;28;20033;-73
2021/10/30 10:36:40;;;;;;;28.83;17.63;;;15.00;99.00;;;;;;5004831;28;20318;-74
2021/10/30 10:39:05;;;;;;;29.83;16.70;;;15.20;98.40;;;;;;5010466;28;20029;-74
2021/10/30 10:41:31;;;;;;;28.15;16.83;;;15.30;97.90;;;;;;5007473;28;20030;-68
2021/10/30 10:43:56;;;;;;;27.20;16.98;;;15.40;97.60;;;;;;5005592;28;20444;-69
2021/10/30 10:46:22;;;;;;;25.67;15.95;;;15.20;98.00;;;;;;5005200;28;20494;-69
2021/10/30 10:48:47;;;;;;;25.02;15.73;;;15.30;97.80;;;;;;5004523;28;20038;-70
2021/10/30 10:51:13;;;;;;;26.20;16.17;;;15.20;97.90;;;;;;5009611;28;20034;-69
2021/10/30 10:53:38;;;;;;;33.42;18.95;;;15.30;98.40;;;;;;5009355;28;20822;-69
2021/10/30 10:56:04;;;;;;;34.47;18.70;;;15.50;97.30;;;;;;5006260;28;20093;-69
2021/10/30 10:58:29;;;;;;;28.02;17.48;;;15.40;97.70;;;;;;5012174;28;20033;-69
2021/10/30 11:00:55;;;;;;;30.77;19.63;;;15.50;97.60;;;;;;5013492;28;20064;-70
2021/10/30 11:03:20;;;;;;;27.77;16.25;;;15.50;97.60;;;;;;5009911;28;20520;-70
2021/10/30 11:05:46;;;;;;;27.85;17.20;;;15.10;97.70;;;;;;5010109;28;20445;-70
2021/10/30 11:08:11;;;;;;;52.88;28.20;;;15.20;97.90;;;;;;5012578;28;20033;-70
2021/10/30 11:10:38;;;;;;;26.15;15.75;;;15.30;98.10;;;;;;5012112;28;20038;-70
2021/10/30 11:13:05;;;;;;;23.33;14.40;;;15.40;98.00;;;;;;5008330;28;20068;-70
2021/10/30 11:15:30;;;;;;;26.42;16.95;;;15.20;97.80;;;;;;5009983;28;20133;-72
2021/10/30 11:20:24;;;;;;;29.77;15.27;;;14.90;98.20;;;;;;5011773;28;20123;-71
2021/10/30 11:22:49;;;;;;;24.90;15.48;;;15.20;98.60;;;;;;5010899;28;20874;-71
2021/10/30 11:25:15;;;;;;;27.45;16.33;;;15.20;98.20;;;;;;5015228;28;20039;-69
2021/10/30 11:27:40;;;;;;;25.23;15.63;;;15.40;97.50;;;;;;5022960;28;20040;-69
2021/10/30 11:30:06;;;;;;;25.77;16.83;;;15.30;97.80;;;;;;5018139;28;20041;-69
2021/10/30 11:32:31;;;;;;;26.65;16.35;;;15.50;97.30;;;;;;5015681;28;20064;-69
2021/10/30 11:34:58;;;;;;;29.27;16.30;;;15.30;98.00;;;;;;5013458;28;20033;-69
2021/10/30 11:37:23;;;;;;;25.33;16.85;;;15.50;98.10;;;;;;5015046;28;20085;-69
2021/10/30 11:39:49;;;;;;;27.27;16.75;;;15.60;97.50;;;;;;5009159;28;20490;-69
2021/10/30 11:42:14;;;;;;;29.55;17.90;;;15.60;97.70;;;;;;5016248;28;20036;-69
2021/10/30 11:44:40;;;;;;;29.35;17.05;;;15.40;97.40;;;;;;5015390;28;20026;-69
2021/10/30 11:47:05;;;;;;;26.65;17.40;;;15.40;97.40;;;;;;5008954;28;20045;-69
2021/10/30 11:49:31;;;;;;;28.60;17.15;;;15.40;97.90;;;;;;5008100;28;20040;-69
2021/10/30 11:51:56;;;;;;;27.02;17.38;;;15.60;97.20;;;;;;5006452;28;20129;-70
2021/10/30 11:54:23;;;;;;;26.25;16.17;;;15.70;97.40;;;;;;5015639;28;20561;-71
2021/10/30 11:56:48;;;;;;;26.50;15.43;;;16.00;97.20;;;;;;5014734;28;20041;-71
2021/10/30 11:59:13;;;;;;;27.48;16.88;;;16.20;97.20;;;;;;5010470;28;20025;-70
2021/10/30 12:01:39;;;;;;;31.25;15.02;;;16.40;96.50;;;;;;5008362;28;20104;-70
2021/10/30 12:04:05;;;;;;;28.90;15.60;;;16.30;96.40;;;;;;5012662;28;20136;-70
2021/10/30 12:06:30;;;;;;;25.98;15.63;;;16.10;96.20;;;;;;5011462;28;20564;-70
2021/10/30 12:08:57;;;;;;;26.60;15.27;;;16.10;96.40;;;;;;5023743;28;20164;-70
2021/10/30 12:11:22;;;;;;;23.77;14.50;;;16.00;97.00;;;;;;5020217;28;20143;-71
2021/10/30 12:13:48;;;;;;;25.52;14.27;;;16.20;96.20;;;;;;5016376;28;20087;-70
2021/10/30 12:16:14;;;;;;;22.70;14.15;;;16.00;96.10;;;;;;5013880;28;20041;-71
2021/10/30 12:18:39;;;;;;;23.67;14.27;;;15.80;96.90;;;;;;5017645;28;20045;-71
2021/10/30 12:21:05;;;;;;;27.42;15.63;;;15.70;96.90;;;;;;5016419;28;20026;-70
2021/10/30 12:23:30;;;;;;;23.48;13.57;;;15.70;96.70;;;;;;5011211;28;20832;-71
2021/10/30 12:25:56;;;;;;;25.90;14.40;;;15.80;97.00;;;;;;5008588;28;20045;-71
2021/10/30 12:28:21;;;;;;;26.95;14.43;;;15.60;97.00;;;;;;5020974;28;20037;-71